Time;durP1;ratioP1;P1;durP2;ratioP2;P2;SDS_P1;SDS_P2;PMS_P1;PMS_P2;Temp;Humidity;BMP_temperature;BMP_pressure;BME280_temperature;BME280_humidity;BME280_pressure;Samples;Min_cycle;Max_cycle;Signal;HPM_P1;HPM_P2
2024/01/20 00:01:04;;;;;;;7.10;1.95;;;;;;;;;;5015276;28;20108;-79
2024/01/20 00:03:30;;;;;;;11.32;2.58;;;;;;;;;;5022468;28;20105;-78
2024/01/20 00:05:56;;;;;;;6.10;2.85;;;;;;;;;;5029778;28;20037;-79
2024/01/20 00:08:22;;;;;;;7.38;2.75;;;;;;;;;;5026980;28;20029;-79
2024/01/20 00:10:48;;;;;;;9.23;4.63;;;;;;;;;;5030593;28;20038;-78
2024/01/20 00:13:14;;;;;;;8.63;3.13;;;;;;;;;;5020627;28;20502;-79
2024/01/20 00:15:40;;;;;;;7.32;3.63;;;;;;;;;;5024991;28;20528;-78
2024/01/20 00:18:06;;;;;;;6.95;3.38;;;;;;;;;;5019450;28;20022;-78
2024/01/20 00:20:32;;;;;;;5.65;2.80;;;;;;;;;;5026600;28;20545;-78
2024/01/20 00:22:58;;;;;;;3.70;2.30;;;;;;;;;;5020416;28;20030;-78
2024/01/20 00:25:24;;;;;;;7.13;2.25;;;;;;;;;;5017584;28;20115;-79
2024/01/20 00:27:50;;;;;;;7.55;4.03;;;;;;;;;;5014800;28;20049;-79
2024/01/20 00:30:16;;;;;;;6.35;3.10;;;;;;;;;;5025742;28;20038;-78
2024/01/20 00:32:42;;;;;;;5.70;2.55;;;;;;;;;;5020011;28;20033;-78
2024/01/20 00:35:08;;;;;;;6.97;2.00;;;;;;;;;;5032795;28;20785;-78
2024/01/20 00:37:38;;;;;;;5.25;2.45;;;;;;;;;;5031949;28;20698;-79
2024/01/20 00:40:04;;;;;;;5.70;2.33;;;;;;;;;;5031342;28;20025;-79
2024/01/20 00:42:30;;;;;;;7.07;2.00;;;;;;;;;;5025005;28;20030;-79
2024/01/20 00:44:57;;;;;;;36.42;9.30;;;;;;;;;;5022110;28;20371;-78
2024/01/20 00:47:23;;;;;;;32.38;10.60;;;;;;;;;;5034145;28;20040;-78
2024/01/20 00:49:49;;;;;;;16.05;8.27;;;;;;;;;;5034837;28;20033;-79
2024/01/20 00:52:15;;;;;;;15.20;3.72;;;;;;;;;;5033171;28;20029;-79
2024/01/20 00:54:41;;;;;;;19.10;7.47;;;;;;;;;;5033816;28;20451;-79
2024/01/20 00:57:07;;;;;;;18.25;10.52;;;;;;;;;;5026256;28;20745;-79
2024/01/20 00:59:33;;;;;;;18.02;7.40;;;;;;;;;;5033832;28;20037;-79
2024/01/20 01:01:59;;;;;;;10.23;2.28;;;;;;;;;;5031434;28;20656;-79
2024/01/20 01:04:25;;;;;;;5.65;2.45;;;;;;;;;;5023372;28;20037;-79
2024/01/20 01:06:51;;;;;;;2.55;1.52;;;;;;;;;;5033448;28;20491;-79
2024/01/20 01:09:17;;;;;;;4.75;3.08;;;;;;;;;;5033831;28;20113;-79
2024/01/20 01:11:45;;;;;;;5.13;2.22;;;;;;;;;;5033009;28;20036;-79
2024/01/20 01:14:11;;;;;;;2.75;1.10;;;;;;;;;;5033402;28;20029;-79
2024/01/20 01:16:37;;;;;;;3.97;1.70;;;;;;;;;;5032293;28;20052;-79
2024/01/20 01:19:03;;;;;;;3.63;1.08;;;;;;;;;;5033871;28;20605;-79
2024/01/20 01:21:29;;;;;;;2.13;1.55;;;;;;;;;;5031799;28;20079;-79
2024/01/20 01:23:55;;;;;;;5.00;1.90;;;;;;;;;;5023630;28;20029;-78
2024/01/20 01:26:21;;;;;;;3.60;1.60;;;;;;;;;;5026634;28;20044;-78
2024/01/20 01:28:47;;;;;;;2.22;1.00;;;;;;;;;;5021213;28;20037;-79
2024/01/20 01:31:13;;;;;;;2.15;1.52;;;;;;;;;;5018652;28;20044;-79
2024/01/20 01:33:39;;;;;;;3.85;2.05;;;;;;;;;;5033077;28;20036;-78
2024/01/20 01:36:05;;;;;;;4.10;2.00;;;;;;;;;;5028964;28;20037;-79
2024/01/20 01:38:31;;;;;;;5.10;2.70;;;;;;;;;;5020818;28;20491;-79
2024/01/20 01:40:57;;;;;;;4.95;3.05;;;;;;;;;;5031396;28;20128;-78
2024/01/20 01:43:23;;;;;;;4.72;1.80;;;;;;;;;;5031135;28;20064;-78
2024/01/20 01:45:50;;;;;;;2.35;1.48;;;;;;;;;;5021222;28;20038;-78
2024/01/20 01:48:16;;;;;;;8.15;1.60;;;;;;;;;;5031450;28;20048;-78
2024/01/20 01:50:42;;;;;;;2.38;1.17;;;;;;;;;;5032921;28;20931;-78
2024/01/20 01:53:08;;;;;;;7.57;1.60;;;;;;;;;;5033028;28;20387;-79
2024/01/20 01:55:35;;;;;;;1.88;0.93;;;;;;;;;;5027764;28;20083;-79
2024/01/20 01:58:02;;;;;;;3.95;2.45;;;;;;;;;;5022321;28;20479;-77
2024/01/20 02:00:29;;;;;;;1.63;0.73;;;;;;;;;;5021657;28;20037;-78
2024/01/20 02:02:55;;;;;;;2.20;0.70;;;;;;;;;;5030498;28;20056;-78
2024/01/20 02:05:21;;;;;;;6.03;1.85;;;;;;;;;;5029094;28;20068;-78
2024/01/20 02:07:48;;;;;;;2.03;0.95;;;;;;;;;;5026432;28;20538;-78
2024/01/20 02:10:18;;;;;;;3.92;1.25;;;;;;;;;;5024778;28;20468;-78
2024/01/20 02:12:44;;;;;;;1.83;1.02;;;;;;;;;;5032757;28;20033;-78
2024/01/20 02:15:10;;;;;;;2.75;0.73;;;;;;;;;;5027436;28;20057;-78
2024/01/20 02:17:36;;;;;;;3.08;1.58;;;;;;;;;;5022400;28;20026;-78
2024/01/20 02:20:02;;;;;;;3.08;1.02;;;;;;;;;;5019633;28;20041;-78
2024/01/20 02:22:28;;;;;;;2.45;0.75;;;;;;;;;;5031002;28;20021;-78
2024/01/20 02:24:55;;;;;;;4.75;1.42;;;;;;;;;;5021662;28;20069;-78
2024/01/20 02:27:20;;;;;;;0.90;0.60;;;;;;;;;;5019300;28;20044;-78
2024/01/20 02:29:46;;;;;;;5.32;1.42;;;;;;;;;;5032273;28;20041;-78
2024/01/20 02:32:13;;;;;;;4.28;0.85;;;;;;;;;;5019755;28;20056;-78
2024/01/20 02:34:39;;;;;;;3.40;1.15;;;;;;;;;;5031922;28;20088;-78
2024/01/20 02:37:07;;;;;;;5.00;1.00;;;;;;;;;;5031322;28;20022;-78
2024/01/20 02:39:33;;;;;;;1.40;0.95;;;;;;;;;;5031371;28;20037;-78
2024/01/20 02:41:59;;;;;;;0.60;0.40;;;;;;;;;;5031417;28;20029;-78
2024/01/20 02:44:25;;;;;;;6.55;2.25;;;;;;;;;;5023703;28;20700;-78
2024/01/20 02:46:52;;;;;;;3.00;1.83;;;;;;;;;;5022474;28;20052;-78
2024/01/20 02:49:18;;;;;;;1.48;0.88;;;;;;;;;;5014816;28;20132;-78
2024/01/20 02:51:44;;;;;;;6.13;0.65;;;;;;;;;;5027452;28;20034;-78
2024/01/20 02:54:10;;;;;;;1.83;0.52;;;;;;;;;;5019355;28;20092;-78
2024/01/20 02:56:36;;;;;;;1.55;0.93;;;;;;;;;;5023201;28;20045;-78
2024/01/20 02:59:02;;;;;;;2.83;1.38;;;;;;;;;;5030541;28;20128;-78
2024/01/20 03:01:28;;;;;;;2.38;0.90;;;;;;;;;;5022383;28;20037;-78
2024/01/20 03:03:54;;;;;;;5.32;2.13;;;;;;;;;;5030675;28;20034;-79
2024/01/20 03:06:20;;;;;;;5.63;0.90;;;;;;;;;;5027431;28;20038;-78
2024/01/20 03:08:46;;;;;;;3.33;1.08;;;;;;;;;;5021726;28;20041;-78
2024/01/20 03:11:12;;;;;;;4.70;1.00;;;;;;;;;;5024629;28;20033;-78
2024/01/20 03:13:38;;;;;;;3.58;1.48;;;;;;;;;;5020092;28;20107;-79
2024/01/20 03:16:04;;;;;;;1.63;0.70;;;;;;;;;;5024600;28;20095;-78
2024/01/20 03:18:30;;;;;;;1.42;0.65;;;;;;;;;;5027211;28;20065;-78
2024/01/20 03:20:56;;;;;;;1.60;0.98;;;;;;;;;;5022497;28;20069;-78
2024/01/20 03:23:22;;;;;;;2.75;1.05;;;;;;;;;;5024857;28;20033;-78
2024/01/20 03:25:49;;;;;;;2.28;0.47;;;;;;;;;;5024781;28;20041;-78
2024/01/20 03:28:15;;;;;;;1.20;0.63;;;;;;;;;;5018057;28;20037;-78
2024/01/20 03:30:41;;;;;;;2.47;0.80;;;;;;;;;;5018682;28;20033;-78
2024/01/20 03:33:07;;;;;;;1.20;0.40;;;;;;;;;;5030504;28;20104;-78
2024/01/20 03:35:33;;;;;;;3.20;0.88;;;;;;;;;;5023473;28;20045;-78
2024/01/20 03:37:59;;;;;;;3.22;1.70;;;;;;;;;;5030416;28;20124;-78
2024/01/20 03:40:25;;;;;;;2.97;0.80;;;;;;;;;;5013268;28;20871;-78
2024/01/20 03:42:51;;;;;;;4.45;2.30;;;;;;;;;;5029474;28;20022;-78
2024/01/20 03:45:17;;;;;;;4.50;0.70;;;;;;;;;;5027541;28;20369;-78
2024/01/20 03:47:43;;;;;;;2.45;0.70;;;;;;;;;;5030364;28;20105;-79
2024/01/20 03:50:09;;;;;;;3.80;1.35;;;;;;;;;;5026353;28;20029;-78
2024/01/20 03:52:35;;;;;;;3.50;1.17;;;;;;;;;;5023230;28;20032;-79
2024/01/20 03:55:01;;;;;;;1.25;0.80;;;;;;;;;;5027980;28;20036;-79
2024/01/20 03:57:27;;;;;;;4.97;0.93;;;;;;;;;;5029582;28;20037;-79
2024/01/20 03:59:53;;;;;;;8.02;2.00;;;;;;;;;;5027870;28;20082;-79
2024/01/20 04:02:19;;;;;;;3.13;0.60;;;;;;;;;;5018738;28;20022;-79
2024/01/20 04:04:45;;;;;;;5.60;0.70;;;;;;;;;;5025053;28;20076;-79
2024/01/20 04:07:11;;;;;;;2.58;1.20;;;;;;;;;;5020273;28;20029;-79
2024/01/20 04:09:37;;;;;;;3.17;1.50;;;;;;;;;;5030727;28;20045;-79
2024/01/20 04:12:04;;;;;;;5.18;1.55;;;;;;;;;;5012065;28;20113;-79
2024/01/20 04:14:31;;;;;;;3.55;0.82;;;;;;;;;;5021535;28;20063;-79
2024/01/20 04:16:58;;;;;;;9.25;2.50;;;;;;;;;;5022079;28;20045;-78
2024/01/20 04:19:24;;;;;;;6.30;2.45;;;;;;;;;;5023543;28;20156;-79
2024/01/20 04:21:50;;;;;;;2.65;1.23;;;;;;;;;;5029513;28;20053;-79
2024/01/20 04:24:16;;;;;;;2.17;1.00;;;;;;;;;;5028674;28;20374;-79
2024/01/20 04:26:42;;;;;;;4.80;0.90;;;;;;;;;;5027376;28;20044;-78
2024/01/20 04:29:08;;;;;;;16.35;2.10;;;;;;;;;;5023904;28;20038;-79
2024/01/20 04:31:34;;;;;;;3.22;1.25;;;;;;;;;;5020675;28;20115;-79
2024/01/20 04:34:00;;;;;;;2.55;0.73;;;;;;;;;;5029106;28;20037;-79
2024/01/20 04:36:26;;;;;;;9.45;0.85;;;;;;;;;;5019744;28;20085;-78
2024/01/20 04:38:52;;;;;;;2.38;0.90;;;;;;;;;;5026560;28;21019;-79
2024/01/20 04:41:18;;;;;;;1.05;0.88;;;;;;;;;;5020169;28;20101;-78
2024/01/20 04:43:44;;;;;;;2.92;0.70;;;;;;;;;;5029628;28;20447;-78
2024/01/20 04:46:10;;;;;;;4.03;1.33;;;;;;;;;;5023118;28;20041;-79
2024/01/20 04:48:36;;;;;;;3.42;1.63;;;;;;;;;;5017047;28;20041;-79
2024/01/20 04:51:02;;;;;;;2.85;0.70;;;;;;;;;;5030323;28;20033;-79
2024/01/20 04:53:28;;;;;;;4.47;1.35;;;;;;;;;;5028698;28;20112;-79
2024/01/20 04:55:54;;;;;;;2.08;0.73;;;;;;;;;;5019751;28;20118;-79
2024/01/20 04:58:20;;;;;;;5.35;0.90;;;;;;;;;;5024817;28;20076;-79
2024/01/20 05:00:46;;;;;;;2.22;1.13;;;;;;;;;;5016897;28;20371;-78
2024/01/20 05:03:12;;;;;;;0.82;0.63;;;;;;;;;;5025989;28;20068;-79
2024/01/20 05:05:42;;;;;;;1.38;0.30;;;;;;;;;;5019330;28;20375;-79
2024/01/20 05:08:08;;;;;;;1.45;0.60;;;;;;;;;;5025038;28;20022;-79
2024/01/20 05:10:34;;;;;;;1.38;0.85;;;;;;;;;;5023381;28;20726;-78
2024/01/20 05:13:00;;;;;;;2.28;0.85;;;;;;;;;;5022272;28;20073;-79
2024/01/20 05:15:26;;;;;;;0.55;0.40;;;;;;;;;;5025291;28;20057;-78
2024/01/20 05:17:52;;;;;;;10.07;1.58;;;;;;;;;;5028216;28;20033;-78
2024/01/20 05:20:18;;;;;;;19.67;2.28;;;;;;;;;;5033291;28;20034;-79
2024/01/20 05:22:44;;;;;;;8.35;2.08;;;;;;;;;;5033153;28;20044;-79
2024/01/20 05:25:10;;;;;;;1.88;0.93;;;;;;;;;;5023329;28;20030;-79
2024/01/20 05:27:36;;;;;;;2.03;1.35;;;;;;;;;;5028050;28;20451;-79
2024/01/20 05:30:02;;;;;;;6.88;1.90;;;;;;;;;;5033561;28;20036;-78
2024/01/20 05:32:28;;;;;;;1.85;0.93;;;;;;;;;;5031018;28;20107;-78
2024/01/20 05:34:54;;;;;;;2.30;0.70;;;;;;;;;;5027437;28;20681;-78
2024/01/20 05:37:20;;;;;;;4.75;0.73;;;;;;;;;;5018803;28;20091;-78
2024/01/20 05:39:46;;;;;;;2.00;0.63;;;;;;;;;;5020161;28;20026;-78
2024/01/20 05:42:14;;;;;;;1.85;0.60;;;;;;;;;;5026601;28;20809;-79
2024/01/20 05:44:40;;;;;;;0.57;0.28;;;;;;;;;;5032697;28;20753;-78
2024/01/20 05:47:06;;;;;;;1.17;0.55;;;;;;;;;;5030251;28;20060;-78
2024/01/20 05:49:32;;;;;;;1.00;0.20;;;;;;;;;;5032077;28;20452;-78
2024/01/20 05:51:58;;;;;;;0.63;0.47;;;;;;;;;;5016906;28;20042;-78
2024/01/20 05:54:24;;;;;;;0.73;0.50;;;;;;;;;;5025892;28;20026;-79
2024/01/20 05:56:50;;;;;;;2.38;1.27;;;;;;;;;;5024577;28;20034;-79
2024/01/20 05:59:16;;;;;;;1.65;0.63;;;;;;;;;;5028701;28;20411;-79
2024/01/20 06:01:42;;;;;;;1.70;0.45;;;;;;;;;;5023725;28;20040;-79
2024/01/20 06:04:08;;;;;;;4.70;1.05;;;;;;;;;;5032747;28;20029;-78
2024/01/20 06:06:34;;;;;;;2.30;1.20;;;;;;;;;;5027641;28;20042;-78
2024/01/20 06:09:00;;;;;;;2.28;1.13;;;;;;;;;;5033264;28;20017;-78
2024/01/20 06:11:26;;;;;;;0.82;0.40;;;;;;;;;;5029127;28;20192;-78
2024/01/20 06:13:52;;;;;;;2.42;1.17;;;;;;;;;;5028649;28;20521;-78
2024/01/20 06:16:18;;;;;;;2.10;0.95;;;;;;;;;;5023213;28;20044;-77
2024/01/20 06:18:44;;;;;;;3.72;0.82;;;;;;;;;;5020907;28;20030;-78
2024/01/20 06:21:10;;;;;;;4.38;1.10;;;;;;;;;;5016647;28;20022;-78
2024/01/20 06:23:36;;;;;;;7.18;1.05;;;;;;;;;;5028711;28;20522;-78
2024/01/20 06:26:03;;;;;;;2.20;1.25;;;;;;;;;;5031918;28;20032;-78
2024/01/20 06:28:29;;;;;;;0.82;0.45;;;;;;;;;;5018743;28;20467;-77
2024/01/20 06:30:56;;;;;;;1.75;1.20;;;;;;;;;;5024605;28;20075;-79
2024/01/20 06:33:22;;;;;;;4.30;2.83;;;;;;;;;;5030918;28;20039;-77
2024/01/20 06:35:48;;;;;;;5.13;2.00;;;;;;;;;;5024426;28;20033;-77
2024/01/20 06:38:14;;;;;;;2.90;1.13;;;;;;;;;;5029638;28;20459;-78
2024/01/20 06:40:40;;;;;;;3.70;1.70;;;;;;;;;;5031805;28;20029;-78
2024/01/20 06:43:06;;;;;;;3.03;1.25;;;;;;;;;;5031656;28;20460;-78
2024/01/20 06:45:33;;;;;;;1.98;0.75;;;;;;;;;;5031008;28;20037;-78
2024/01/20 06:48:01;;;;;;;3.72;1.25;;;;;;;;;;5031929;28;20743;-78
2024/01/20 06:50:27;;;;;;;3.42;0.55;;;;;;;;;;5024675;28;20467;-78
2024/01/20 06:52:53;;;;;;;2.70;1.15;;;;;;;;;;5028484;28;20050;-78
2024/01/20 06:55:19;;;;;;;2.28;1.08;;;;;;;;;;5031181;28;20040;-78
2024/01/20 06:57:45;;;;;;;2.30;1.05;;;;;;;;;;5022757;28;20479;-79
2024/01/20 07:00:11;;;;;;;1.42;0.60;;;;;;;;;;5028028;28;20064;-80
2024/01/20 07:02:37;;;;;;;1.10;0.50;;;;;;;;;;5027283;28;20488;-79
2024/01/20 07:08:18;;;;;;;1.55;0.57;;;;;;;;;;5023348;28;20045;-80
2024/01/20 07:10:47;;;;;;;5.20;1.70;;;;;;;;;;5024166;28;20026;-80
2024/01/20 07:13:21;;;;;;;2.95;0.93;;;;;;;;;;5021199;28;20044;-80
2024/01/20 07:15:47;;;;;;;0.45;0.28;;;;;;;;;;5022476;28;20041;-79
2024/01/20 07:18:13;;;;;;;2.25;1.45;;;;;;;;;;5016800;28;20222;-79
2024/01/20 07:20:39;;;;;;;2.28;1.05;;;;;;;;;;5025159;28;20044;-80
2024/01/20 07:23:05;;;;;;;2.20;0.82;;;;;;;;;;5024024;28;20386;-80
2024/01/20 07:25:36;;;;;;;1.60;0.95;;;;;;;;;;5014684;28;20033;-80
2024/01/20 07:28:02;;;;;;;1.95;1.23;;;;;;;;;;5021472;28;20017;-79
2024/01/20 07:30:28;;;;;;;3.28;0.70;;;;;;;;;;5030502;28;20071;-80
2024/01/20 07:32:57;;;;;;;2.78;0.88;;;;;;;;;;5019793;28;20075;-80
2024/01/20 07:35:23;;;;;;;4.57;1.27;;;;;;;;;;5012745;28;20423;-80
2024/01/20 07:37:49;;;;;;;8.10;0.90;;;;;;;;;;5017053;28;20033;-80
2024/01/20 07:40:16;;;;;;;0.65;0.40;;;;;;;;;;5017433;28;20049;-80
2024/01/20 07:42:43;;;;;;;1.65;0.57;;;;;;;;;;5028609;28;20060;-80
2024/01/20 07:45:09;;;;;;;4.45;1.08;;;;;;;;;;5031193;28;20022;-80
2024/01/20 07:47:35;;;;;;;2.85;0.50;;;;;;;;;;5032743;28;20108;-81
2024/01/20 07:50:02;;;;;;;1.98;0.90;;;;;;;;;;5022707;28;20072;-81
2024/01/20 07:52:28;;;;;;;2.38;0.90;;;;;;;;;;5013797;28;20038;-80
2024/01/20 07:54:54;;;;;;;0.82;0.47;;;;;;;;;;5031299;28;20052;-79
2024/01/20 07:57:20;;;;;;;1.77;0.82;;;;;;;;;;5020147;28;20043;-80
2024/01/20 07:59:46;;;;;;;9.38;1.38;;;;;;;;;;5020964;28;20100;-79
2024/01/20 08:02:13;;;;;;;2.20;0.77;;;;;;;;;;5025451;28;20090;-80
2024/01/20 08:04:39;;;;;;;5.07;0.70;;;;;;;;;;5030040;28;20029;-80
2024/01/20 08:07:05;;;;;;;3.80;0.70;;;;;;;;;;5022824;28;20471;-80
2024/01/20 08:09:31;;;;;;;2.97;0.93;;;;;;;;;;5018461;28;20049;-80
2024/01/20 08:11:57;;;;;;;2.05;0.57;;;;;;;;;;5023402;28;20072;-80
2024/01/20 08:14:23;;;;;;;3.75;0.57;;;;;;;;;;5020642;28;20033;-80
2024/01/20 08:16:49;;;;;;;3.15;0.90;;;;;;;;;;5018700;28;20083;-82
2024/01/20 08:19:15;;;;;;;3.17;1.42;;;;;;;;;;5030176;28;20074;-82
2024/01/20 08:21:42;;;;;;;1.95;0.80;;;;;;;;;;5031849;28;20116;-82
2024/01/20 08:24:08;;;;;;;2.92;0.57;;;;;;;;;;5029318;28;20033;-81
2024/01/20 08:26:34;;;;;;;2.63;0.95;;;;;;;;;;5030508;28;20463;-80
2024/01/20 08:29:01;;;;;;;2.10;0.95;;;;;;;;;;5027781;28;20030;-80
2024/01/20 08:31:27;;;;;;;2.88;0.85;;;;;;;;;;5027963;28;20022;-80
2024/01/20 08:33:54;;;;;;;4.18;1.13;;;;;;;;;;5021421;28;20497;-80
2024/01/20 08:36:20;;;;;;;5.90;1.45;;;;;;;;;;5028629;28;20524;-80
2024/01/20 08:38:46;;;;;;;7.15;0.57;;;;;;;;;;5031555;28;20052;-80
2024/01/20 08:41:12;;;;;;;0.77;0.40;;;;;;;;;;5030135;28;20136;-80
2024/01/20 08:43:41;;;;;;;0.95;0.80;;;;;;;;;;5028765;28;20038;-82
2024/01/20 08:46:08;;;;;;;4.40;1.83;;;;;;;;;;5021499;28;20079;-82
2024/01/20 08:48:34;;;;;;;1.48;0.77;;;;;;;;;;5030499;28;20052;-82
2024/01/20 08:51:00;;;;;;;5.32;1.35;;;;;;;;;;5033893;28;20080;-82
2024/01/20 08:53:29;;;;;;;0.88;0.40;;;;;;;;;;5030764;28;20064;-82
2024/01/20 08:55:56;;;;;;;1.48;0.85;;;;;;;;;;5030836;28;20029;-82
2024/01/20 08:58:22;;;;;;;1.35;0.35;;;;;;;;;;5036217;28;20038;-82
2024/01/20 09:00:48;;;;;;;3.08;1.05;;;;;;;;;;5031818;28;20029;-82
2024/01/20 09:03:16;;;;;;;1.27;0.77;;;;;;;;;;5030713;28;20036;-82
2024/01/20 09:05:42;;;;;;;1.23;0.68;;;;;;;;;;5024430;28;20029;-82
2024/01/20 09:08:09;;;;;;;3.92;0.93;;;;;;;;;;5028553;28;20041;-82
2024/01/20 09:10:36;;;;;;;3.88;1.15;;;;;;;;;;5026978;28;20037;-82
2024/01/20 09:13:02;;;;;;;2.53;1.23;;;;;;;;;;5034139;28;20463;-82
2024/01/20 09:15:28;;;;;;;2.13;0.95;;;;;;;;;;5033794;28;20391;-82
2024/01/20 09:17:54;;;;;;;5.22;1.00;;;;;;;;;;5028399;28;20033;-82
2024/01/20 09:20:20;;;;;;;1.00;0.68;;;;;;;;;;5034139;28;20029;-82
2024/01/20 09:22:47;;;;;;;5.97;0.95;;;;;;;;;;5025337;28;20474;-82
2024/01/20 09:25:13;;;;;;;3.03;1.00;;;;;;;;;;5016774;28;20081;-82
2024/01/20 09:27:39;;;;;;;3.63;1.25;;;;;;;;;;5030163;28;20487;-82
2024/01/20 09:30:05;;;;;;;1.08;0.68;;;;;;;;;;5025187;28;20120;-82
2024/01/20 09:32:33;;;;;;;1.58;0.50;;;;;;;;;;5024150;28;20036;-82
2024/01/20 09:35:00;;;;;;;15.27;0.82;;;;;;;;;;5035475;28;20042;-82
2024/01/20 09:37:26;;;;;;;8.10;0.93;;;;;;;;;;5033983;28;20072;-82
2024/01/20 09:39:52;;;;;;;3.33;0.60;;;;;;;;;;5022023;28;20053;-81
2024/01/20 09:42:18;;;;;;;2.83;1.23;;;;;;;;;;5021176;28;20379;-83
2024/01/20 09:44:45;;;;;;;2.25;0.65;;;;;;;;;;5032244;28;20725;-78
2024/01/20 09:47:12;;;;;;;1.65;0.95;;;;;;;;;;5029063;28;20480;-81
2024/01/20 09:49:38;;;;;;;1.52;0.90;;;;;;;;;;5034129;28;20029;-81
2024/01/20 09:52:12;;;;;;;2.42;0.75;;;;;;;;;;5019329;28;20029;-81
2024/01/20 09:54:45;;;;;;;1.88;0.50;;;;;;;;;;5024443;28;20033;-81
2024/01/20 09:57:11;;;;;;;1.67;0.55;;;;;;;;;;5024058;28;20034;-81
2024/01/20 09:59:39;;;;;;;0.75;0.52;;;;;;;;;;5020404;28;20057;-82
2024/01/20 10:02:05;;;;;;;1.67;0.95;;;;;;;;;;5021942;28;20029;-81
2024/01/20 10:04:33;;;;;;;4.45;0.95;;;;;;;;;;5032847;28;20440;-81
2024/01/20 10:06:59;;;;;;;1.35;0.98;;;;;;;;;;5032141;28;20026;-81
2024/01/20 10:09:25;;;;;;;4.00;1.67;;;;;;;;;;5033757;28;20047;-81
2024/01/20 10:11:51;;;;;;;5.50;1.10;;;;;;;;;;5033940;28;20028;-82
2024/01/20 10:14:17;;;;;;;3.40;1.50;;;;;;;;;;5031869;28;20090;-81
2024/01/20 10:16:43;;;;;;;3.25;1.50;;;;;;;;;;5028376;28;20034;-81
2024/01/20 10:19:09;;;;;;;2.25;1.10;;;;;;;;;;5027943;28;20463;-81
2024/01/20 10:21:39;;;;;;;1.33;0.95;;;;;;;;;;5023400;28;21009;-82
2024/01/20 10:24:06;;;;;;;2.05;1.35;;;;;;;;;;5032767;28;20041;-82
2024/01/20 10:26:40;;;;;;;3.00;0.57;;;;;;;;;;5031925;28;20109;-81
2024/01/20 10:29:06;;;;;;;3.25;0.60;;;;;;;;;;5032122;28;20467;-81
2024/01/20 10:31:32;;;;;;;4.53;1.60;;;;;;;;;;5030714;28;20062;-82
2024/01/20 10:33:58;;;;;;;3.83;1.20;;;;;;;;;;5032947;28;20044;-81
2024/01/20 10:36:25;;;;;;;3.72;0.95;;;;;;;;;;5031806;28;20542;-82
2024/01/20 10:38:53;;;;;;;2.13;0.57;;;;;;;;;;5021868;28;20038;-81
2024/01/20 10:41:21;;;;;;;0.63;0.55;;;;;;;;;;5028959;28;20026;-82
2024/01/20 10:43:50;;;;;;;1.75;0.60;;;;;;;;;;5031156;28;20202;-82
2024/01/20 10:46:23;;;;;;;2.47;0.82;;;;;;;;;;5030422;28;20036;-81
2024/01/20 10:48:53;;;;;;;4.82;1.13;;;;;;;;;;5031217;28;20041;-80
2024/01/20 10:51:22;;;;;;;6.18;0.60;;;;;;;;;;5031456;28;20025;-79
2024/01/20 10:53:49;;;;;;;9.77;1.80;;;;;;;;;;5029949;28;20580;-79
2024/01/20 10:56:16;;;;;;;1.65;1.00;;;;;;;;;;5020666;28;20029;-80
2024/01/20 10:58:45;;;;;;;2.20;0.82;;;;;;;;;;5031105;28;20037;-79
2024/01/20 11:01:11;;;;;;;2.45;1.23;;;;;;;;;;5032222;28;20044;-79
2024/01/20 11:03:38;;;;;;;0.82;0.25;;;;;;;;;;5023659;28;20037;-79
2024/01/20 11:06:04;;;;;;;1.20;0.45;;;;;;;;;;5011612;28;20111;-80
2024/01/20 11:08:31;;;;;;;1.40;0.73;;;;;;;;;;5020786;28;20042;-82
2024/01/20 11:10:57;;;;;;;4.47;1.35;;;;;;;;;;5024660;28;20033;-82
2024/01/20 11:13:25;;;;;;;1.23;0.88;;;;;;;;;;5025163;28;20112;-81
2024/01/20 11:15:51;;;;;;;6.60;1.65;;;;;;;;;;5027586;28;20093;-80
2024/01/20 11:18:21;;;;;;;4.57;1.02;;;;;;;;;;5021692;28;20517;-79
2024/01/20 11:21:01;;;;;;;0.88;0.25;;;;;;;;;;5024878;28;20407;-81
2024/01/20 11:23:27;;;;;;;2.50;0.90;;;;;;;;;;5014978;28;20025;-81
2024/01/20 11:25:54;;;;;;;2.25;1.55;;;;;;;;;;5029815;28;20033;-80
2024/01/20 11:28:40;;;;;;;2.55;0.60;;;;;;;;;;5026804;28;20472;-78
2024/01/20 11:31:17;;;;;;;1.20;0.35;;;;;;;;;;5022665;28;20038;-80
2024/01/20 11:33:43;;;;;;;1.63;1.08;;;;;;;;;;5022611;28;20034;-81
2024/01/20 11:36:09;;;;;;;0.93;0.70;;;;;;;;;;5014571;28;20068;-82
2024/01/20 11:38:36;;;;;;;0.40;0.35;;;;;;;;;;5030711;28;20025;-82
2024/01/20 11:41:03;;;;;;;2.80;1.05;;;;;;;;;;5026436;28;20105;-81
2024/01/20 11:43:29;;;;;;;3.58;2.08;;;;;;;;;;5028568;28;20358;-81
2024/01/20 11:45:58;;;;;;;3.03;1.10;;;;;;;;;;5027933;28;20040;-82
2024/01/20 11:48:25;;;;;;;5.50;1.17;;;;;;;;;;5026979;28;20072;-81
2024/01/20 11:50:51;;;;;;;1.30;0.57;;;;;;;;;;5028992;28;20466;-81
2024/01/20 11:53:20;;;;;;;4.07;1.10;;;;;;;;;;5016143;28;20791;-81
2024/01/20 11:55:59;;;;;;;2.58;1.55;;;;;;;;;;5030445;28;20466;-80
2024/01/20 11:58:25;;;;;;;3.97;1.17;;;;;;;;;;5028522;28;20029;-80
2024/01/20 12:00:52;;;;;;;2.72;1.15;;;;;;;;;;5029815;28;20029;-80
2024/01/20 12:03:18;;;;;;;2.15;0.90;;;;;;;;;;5022974;28;20058;-80
2024/01/20 12:05:44;;;;;;;4.43;1.48;;;;;;;;;;5013437;28;20837;-80
2024/01/20 12:08:11;;;;;;;2.15;1.05;;;;;;;;;;5025548;28;20796;-77
2024/01/20 12:10:37;;;;;;;5.82;1.45;;;;;;;;;;5010558;28;20042;-80
2024/01/20 12:13:03;;;;;;;20.27;1.30;;;;;;;;;;5023181;28;20060;-80
2024/01/20 12:15:42;;;;;;;0.80;0.50;;;;;;;;;;5027588;28;20056;-80
2024/01/20 12:18:08;;;;;;;7.03;0.90;;;;;;;;;;5027231;28;20104;-81
2024/01/20 12:20:37;;;;;;;4.25;0.77;;;;;;;;;;5026885;28;20780;-81
2024/01/20 12:23:04;;;;;;;1.42;1.00;;;;;;;;;;5025168;28;20026;-80
2024/01/20 12:25:30;;;;;;;2.63;1.13;;;;;;;;;;5017619;28;20041;-80
2024/01/20 12:27:57;;;;;;;2.10;0.30;;;;;;;;;;5021806;28;20076;-82
2024/01/20 12:30:23;;;;;;;0.57;0.50;;;;;;;;;;5021914;28;20109;-82
2024/01/20 12:32:49;;;;;;;5.53;0.75;;;;;;;;;;5030069;28;20113;-81
2024/01/20 12:35:16;;;;;;;8.98;1.00;;;;;;;;;;5025702;28;20080;-81
2024/01/20 12:37:42;;;;;;;2.10;0.70;;;;;;;;;;5019324;28;20061;-82
2024/01/20 12:40:08;;;;;;;1.02;0.70;;;;;;;;;;5026979;28;20061;-83
2024/01/20 12:42:35;;;;;;;4.22;1.38;;;;;;;;;;5025859;28;20033;-83
2024/01/20 12:45:01;;;;;;;2.72;1.35;;;;;;;;;;5015663;28;20044;-82
2024/01/20 12:47:27;;;;;;;4.78;2.67;;;;;;;;;;5029013;28;20031;-83
2024/01/20 12:49:53;;;;;;;1.88;1.08;;;;;;;;;;5028840;28;20306;-83
2024/01/20 12:52:20;;;;;;;3.38;0.57;;;;;;;;;;5027423;28;20387;-83
2024/01/20 12:54:46;;;;;;;1.33;0.77;;;;;;;;;;5018436;28;20037;-83
2024/01/20 12:57:12;;;;;;;1.10;0.63;;;;;;;;;;5028395;28;20033;-83
2024/01/20 12:59:38;;;;;;;1.33;0.77;;;;;;;;;;5026791;28;20033;-82
2024/01/20 13:02:04;;;;;;;1.77;0.40;;;;;;;;;;5026983;28;20445;-82
2024/01/20 13:04:31;;;;;;;3.35;1.02;;;;;;;;;;5027728;28;20034;-83
2024/01/20 13:06:57;;;;;;;1.60;0.63;;;;;;;;;;5024431;28;20030;-82
2024/01/20 13:09:23;;;;;;;2.50;0.80;;;;;;;;;;5021475;28;20060;-83
2024/01/20 13:11:49;;;;;;;0.70;0.20;;;;;;;;;;5026924;28;20029;-83
2024/01/20 13:14:15;;;;;;;1.42;0.70;;;;;;;;;;5028900;28;20041;-83
2024/01/20 13:16:41;;;;;;;4.68;1.13;;;;;;;;;;5021589;28;20052;-83
2024/01/20 13:19:07;;;;;;;4.72;1.10;;;;;;;;;;5029610;28;20033;-83
2024/01/20 13:21:33;;;;;;;2.25;1.50;;;;;;;;;;5022761;28;20034;-83
2024/01/20 13:23:59;;;;;;;0.95;0.70;;;;;;;;;;5029379;28;20029;-83
2024/01/20 13:26:26;;;;;;;1.67;0.73;;;;;;;;;;5028594;28;22027;-83
2024/01/20 13:28:52;;;;;;;2.33;0.90;;;;;;;;;;5020114;28;20029;-83
2024/01/20 13:31:18;;;;;;;1.77;0.70;;;;;;;;;;5026882;28;20037;-83
2024/01/20 13:33:44;;;;;;;1.70;0.50;;;;;;;;;;5029882;28;20041;-83
2024/01/20 13:36:11;;;;;;;1.30;0.47;;;;;;;;;;5017724;28;20029;-83
2024/01/20 13:38:39;;;;;;;3.15;0.52;;;;;;;;;;5024695;28;20041;-83
2024/01/20 13:41:06;;;;;;;2.47;0.75;;;;;;;;;;5025501;28;20060;-82
2024/01/20 13:43:32;;;;;;;1.00;0.40;;;;;;;;;;5031101;28;20156;-83
2024/01/20 13:45:58;;;;;;;0.45;0.25;;;;;;;;;;5024595;28;20034;-83
2024/01/20 13:48:24;;;;;;;1.63;1.02;;;;;;;;;;5031952;28;20056;-83
2024/01/20 13:50:50;;;;;;;1.90;1.40;;;;;;;;;;5031926;28;20029;-83
2024/01/20 13:53:17;;;;;;;1.70;0.75;;;;;;;;;;5020614;28;20486;-83
2024/01/20 13:55:43;;;;;;;2.38;1.25;;;;;;;;;;5018668;28;20128;-83
2024/01/20 13:58:09;;;;;;;2.00;0.80;;;;;;;;;;5026962;28;20112;-83
2024/01/20 14:00:35;;;;;;;7.85;1.58;;;;;;;;;;5028806;28;20147;-83
2024/01/20 14:03:01;;;;;;;2.72;0.88;;;;;;;;;;5027926;28;20026;-83
2024/01/20 14:05:27;;;;;;;2.10;0.77;;;;;;;;;;5022856;28;20029;-83
2024/01/20 14:07:53;;;;;;;4.05;1.67;;;;;;;;;;5022357;28;20140;-82
2024/01/20 14:10:19;;;;;;;1.95;1.10;;;;;;;;;;5011469;28;20120;-82
2024/01/20 14:12:46;;;;;;;2.03;0.77;;;;;;;;;;5017189;28;20033;-83
2024/01/20 14:15:12;;;;;;;2.05;0.70;;;;;;;;;;5032993;28;20060;-83
2024/01/20 14:17:38;;;;;;;4.57;1.27;;;;;;;;;;5026980;28;20082;-83
2024/01/20 14:20:05;;;;;;;1.52;0.75;;;;;;;;;;5031425;28;20513;-83
2024/01/20 14:22:31;;;;;;;4.97;0.93;;;;;;;;;;5030130;28;20025;-82
2024/01/20 14:24:59;;;;;;;4.47;1.05;;;;;;;;;;5031929;28;20079;-83
2024/01/20 14:27:25;;;;;;;2.50;1.73;;;;;;;;;;5020167;28;20068;-83
2024/01/20 14:29:52;;;;;;;1.30;0.70;;;;;;;;;;5028188;28;20487;-83
2024/01/20 14:32:18;;;;;;;1.30;0.52;;;;;;;;;;5028087;28;20021;-82
2024/01/20 14:34:44;;;;;;;2.00;0.93;;;;;;;;;;5026669;28;20042;-83
2024/01/20 14:37:10;;;;;;;3.70;0.52;;;;;;;;;;5029062;28;20041;-83
2024/01/20 14:39:37;;;;;;;7.45;1.13;;;;;;;;;;5028494;28;20034;-83
2024/01/20 14:42:03;;;;;;;3.28;0.95;;;;;;;;;;5032307;28;20048;-83